Time;durP1;ratioP1;P1;durP2;ratioP2;P2;SDS_P1;SDS_P2;PMS_P1;PMS_P2;Temp;Humidity;BMP_temperature;BMP_pressure;BME280_temperature;BME280_humidity;BME280_pressure;Samples;Min_cycle;Max_cycle;Signal;HPM_P1;HPM_P2
2021/01/07 00:00:26;;;;;;;40.03;20.33;;;3.10;99.90;;;;;;4366845;32;20156;-70
2021/01/07 00:02:52;;;;;;;38.83;19.30;;;3.10;99.90;;;;;;4369816;32;20221;-73
2021/01/07 00:05:19;;;;;;;40.33;18.33;;;3.00;99.90;;;;;;4379290;32;20579;-72
2021/01/07 00:07:46;;;;;;;39.97;18.73;;;3.00;99.90;;;;;;4374237;32;20514;-71
2021/01/07 00:10:13;;;;;;;38.50;18.67;;;2.90;99.90;;;;;;4371313;32;20164;-70
2021/01/07 00:12:40;;;;;;;36.80;18.00;;;2.90;99.90;;;;;;4380898;32;20132;-70
2021/01/07 00:15:07;;;;;;;30.20;16.17;;;2.90;99.90;;;;;;4380874;32;20475;-72
2021/01/07 00:17:33;;;;;;;34.53;16.53;;;2.90;99.90;;;;;;4382330;32;20166;-72
2021/01/07 00:19:59;;;;;;;31.93;15.60;;;2.90;99.90;;;;;;4380827;32;20404;-71
2021/01/07 00:22:26;;;;;;;23.73;12.77;;;2.90;99.90;;;;;;4380655;32;20201;-71
2021/01/07 00:24:53;;;;;;;25.73;12.97;;;2.80;99.90;;;;;;4382270;32;20466;-71
2021/01/07 00:27:19;;;;;;;25.90;12.73;;;2.80;99.90;;;;;;4380549;32;20163;-71
2021/01/07 00:29:46;;;;;;;24.53;12.20;;;2.80;99.90;;;;;;4379688;32;20525;-71
2021/01/07 00:32:12;;;;;;;22.93;11.67;;;2.80;99.90;;;;;;4350223;33;20137;-71
2021/01/07 00:34:39;;;;;;;21.60;10.90;;;2.70;99.90;;;;;;4352265;33;20144;-71
2021/01/07 00:37:05;;;;;;;21.30;11.33;;;2.70;99.90;;;;;;4350969;33;20136;-71
2021/01/07 00:39:32;;;;;;;23.23;11.57;;;2.70;99.90;;;;;;4352416;33;20191;-71
2021/01/07 00:41:59;;;;;;;19.67;11.47;;;2.60;99.90;;;;;;4350911;33;20200;-71
2021/01/07 00:44:26;;;;;;;21.17;10.90;;;2.60;99.90;;;;;;4350664;33;20148;-71
2021/01/07 00:46:53;;;;;;;20.53;11.10;;;2.50;99.90;;;;;;4352433;33;20525;-71
2021/01/07 00:49:20;;;;;;;21.27;11.33;;;2.40;99.90;;;;;;4353358;33;20306;-71
2021/01/07 00:51:47;;;;;;;21.13;11.27;;;2.50;99.90;;;;;;4357441;32;20239;-70
2021/01/07 00:54:14;;;;;;;20.87;11.07;;;2.40;99.90;;;;;;4351343;33;20475;-70
2021/01/07 00:56:41;;;;;;;22.73;11.33;;;2.50;99.90;;;;;;4352604;33;20137;-71
2021/01/07 00:59:08;;;;;;;19.63;10.83;;;2.50;99.90;;;;;;4364998;32;20163;-71
2021/01/07 01:01:45;;;;;;;18.93;10.40;;;2.40;99.90;;;;;;4365909;32;20199;-71
2021/01/07 01:04:14;;;;;;;20.40;10.70;;;2.40;99.90;;;;;;4365992;32;20275;-71
2021/01/07 01:06:40;;;;;;;19.20;10.40;;;2.30;99.90;;;;;;4365866;32;20475;-70
2021/01/07 01:09:09;;;;;;;19.50;10.43;;;2.40;99.90;;;;;;4364853;32;20447;-71
2021/01/07 01:11:42;;;;;;;21.33;11.00;;;2.20;99.90;;;;;;4372666;32;20163;-70
2021/01/07 01:14:10;;;;;;;21.13;11.47;;;2.20;99.90;;;;;;4381619;32;20210;-70
2021/01/07 01:16:36;;;;;;;20.17;10.77;;;2.30;99.90;;;;;;4380198;32;20186;-70
2021/01/07 01:19:04;;;;;;;19.17;10.53;;;2.20;99.90;;;;;;4381249;32;20430;-71
2021/01/07 01:21:32;;;;;;;18.37;10.70;;;2.20;99.90;;;;;;4380284;32;20456;-70
2021/01/07 01:23:59;;;;;;;21.53;11.60;;;2.20;99.90;;;;;;4381406;32;20433;-70
2021/01/07 01:26:25;;;;;;;19.23;11.00;;;2.30;99.90;;;;;;4379393;32;20173;-71
2021/01/07 01:28:52;;;;;;;20.10;11.20;;;2.30;99.90;;;;;;4381251;32;20536;-71
2021/01/07 01:31:18;;;;;;;20.00;10.93;;;2.30;99.90;;;;;;4379882;32;20147;-70
2021/01/07 01:33:45;;;;;;;20.03;11.10;;;2.20;99.90;;;;;;4380024;32;20140;-71
2021/01/07 01:36:11;;;;;;;21.37;11.43;;;2.10;99.90;;;;;;4375356;32;20215;-71
2021/01/07 01:38:38;;;;;;;21.00;11.80;;;2.10;99.90;;;;;;4373080;32;20159;-71
2021/01/07 01:41:06;;;;;;;20.43;10.97;;;2.00;99.90;;;;;;4381086;32;20140;-71
2021/01/07 01:43:35;;;;;;;23.00;11.83;;;2.00;99.90;;;;;;4379773;32;20243;-71
2021/01/07 01:46:03;;;;;;;22.20;12.37;;;2.00;99.90;;;;;;4379511;32;20198;-71
2021/01/07 01:48:30;;;;;;;20.57;11.63;;;2.10;99.90;;;;;;4379463;32;20140;-71
2021/01/07 01:50:58;;;;;;;21.70;11.70;;;2.10;99.90;;;;;;4379437;32;20152;-70
2021/01/07 01:53:25;;;;;;;22.40;11.73;;;2.10;99.90;;;;;;4379317;32;20532;-70
2021/01/07 01:55:52;;;;;;;21.47;12.30;;;2.00;99.90;;;;;;4379688;32;20197;-71
2021/01/07 01:58:20;;;;;;;20.10;12.03;;;1.90;99.90;;;;;;4380862;32;20175;-70
2021/01/07 02:00:46;;;;;;;22.23;12.83;;;1.90;99.90;;;;;;4379853;32;20167;-71
2021/01/07 02:03:13;;;;;;;21.40;12.73;;;1.90;99.90;;;;;;4380687;32;20144;-71
2021/01/07 02:05:40;;;;;;;25.33;13.03;;;1.90;99.90;;;;;;4380933;32;20177;-71
2021/01/07 02:08:09;;;;;;;26.47;13.93;;;1.80;99.90;;;;;;4381009;32;20148;-71
2021/01/07 02:10:36;;;;;;;23.67;12.47;;;1.80;99.90;;;;;;4379465;32;20459;-71
2021/01/07 02:13:04;;;;;;;22.83;13.07;;;1.80;99.90;;;;;;4379539;32;20210;-71
2021/01/07 02:15:31;;;;;;;23.07;12.80;;;1.90;99.90;;;;;;4380532;32;20135;-71
2021/01/07 02:17:58;;;;;;;26.50;12.77;;;1.90;99.90;;;;;;4371527;32;20167;-71
2021/01/07 02:20:26;;;;;;;24.90;14.00;;;1.90;99.90;;;;;;4363834;32;20516;-71
2021/01/07 02:22:56;;;;;;;23.73;13.53;;;1.90;99.90;;;;;;4349172;32;20417;-71
2021/01/07 02:25:28;;;;;;;24.80;12.83;;;1.90;99.90;;;;;;4350888;32;20433;-71
2021/01/07 02:27:55;;;;;;;27.97;13.40;;;2.00;99.90;;;;;;4364466;32;20137;-71
2021/01/07 02:30:22;;;;;;;27.03;13.90;;;1.90;99.90;;;;;;4364959;32;20213;-70
2021/01/07 02:32:55;;;;;;;25.77;13.73;;;2.00;99.90;;;;;;4365496;32;20141;-71
2021/01/07 02:35:21;;;;;;;28.97;14.40;;;2.00;99.90;;;;;;4365949;32;20182;-71
2021/01/07 02:37:47;;;;;;;27.83;14.33;;;2.00;99.90;;;;;;4365877;32;20166;-71
2021/01/07 02:40:14;;;;;;;30.17;15.40;;;2.00;99.90;;;;;;4364495;32;20144;-70
2021/01/07 02:42:41;;;;;;;32.57;15.10;;;2.00;99.90;;;;;;4364626;32;20439;-71
2021/01/07 02:45:09;;;;;;;28.00;14.33;;;2.00;99.90;;;;;;4364189;32;20162;-71
2021/01/07 02:47:37;;;;;;;27.33;14.13;;;1.90;99.90;;;;;;4365488;32;20178;-71
2021/01/07 02:50:05;;;;;;;35.07;16.37;;;1.80;99.90;;;;;;4365059;32;20144;-70
2021/01/07 02:52:32;;;;;;;28.13;14.60;;;1.80;99.90;;;;;;4364001;32;20196;-71
2021/01/07 02:54:58;;;;;;;30.77;14.23;;;1.90;99.90;;;;;;4363773;32;20448;-71
2021/01/07 02:57:24;;;;;;;32.50;15.53;;;1.80;99.90;;;;;;4364236;32;20140;-71
2021/01/07 02:59:51;;;;;;;29.67;15.53;;;1.90;99.90;;;;;;4364561;32;20140;-71
2021/01/07 03:02:17;;;;;;;32.27;15.73;;;1.90;99.90;;;;;;4363841;33;20185;-71
2021/01/07 03:04:44;;;;;;;31.07;15.97;;;1.90;99.90;;;;;;4365605;33;20475;-71
2021/01/07 03:07:10;;;;;;;33.03;15.43;;;1.80;99.90;;;;;;4363211;33;20413;-72
2021/01/07 03:09:36;;;;;;;32.13;15.97;;;1.90;99.90;;;;;;4365441;33;20215;-71
2021/01/07 03:12:17;;;;;;;28.97;15.17;;;1.80;99.90;;;;;;4363921;33;20215;-71
2021/01/07 03:14:44;;;;;;;30.87;15.07;;;1.90;99.90;;;;;;4362998;33;20397;-71
2021/01/07 03:17:12;;;;;;;31.20;15.93;;;2.00;99.90;;;;;;4363652;33;20144;-71
2021/01/07 03:19:39;;;;;;;33.40;16.10;;;2.00;99.90;;;;;;4363782;33;20187;-71
2021/01/07 03:22:05;;;;;;;34.07;15.97;;;2.10;99.90;;;;;;4363844;33;20148;-71
2021/01/07 03:24:33;;;;;;;33.60;16.13;;;2.00;99.90;;;;;;4363276;33;20221;-71
2021/01/07 03:27:00;;;;;;;31.30;15.57;;;2.00;99.90;;;;;;4364929;32;20151;-71
2021/01/07 03:29:27;;;;;;;34.50;16.90;;;2.00;99.90;;;;;;4366765;32;20400;-71
2021/01/07 03:31:54;;;;;;;31.83;15.77;;;2.00;99.90;;;;;;4367695;32;20148;-72
2021/01/07 03:34:20;;;;;;;37.03;16.73;;;1.90;99.90;;;;;;4366577;32;20190;-71
2021/01/07 03:36:48;;;;;;;38.07;16.83;;;2.00;99.90;;;;;;4368093;32;20141;-72
2021/01/07 03:39:15;;;;;;;33.57;15.73;;;1.90;99.90;;;;;;4366734;32;20467;-71
2021/01/07 03:41:42;;;;;;;35.17;16.23;;;2.00;99.90;;;;;;4365991;32;20219;-71
2021/01/07 03:44:09;;;;;;;33.07;15.80;;;2.00;99.90;;;;;;4368314;32;20160;-71
2021/01/07 03:46:35;;;;;;;34.20;16.07;;;2.00;99.90;;;;;;4368025;32;20409;-71
2021/01/07 03:49:02;;;;;;;29.93;15.07;;;2.00;99.90;;;;;;4366539;32;20195;-71
2021/01/07 03:51:28;;;;;;;32.27;15.07;;;2.10;99.90;;;;;;4366619;32;20195;-72
2021/01/07 03:53:55;;;;;;;34.23;16.00;;;2.00;99.90;;;;;;4366444;32;20218;-71
2021/01/07 03:56:21;;;;;;;35.00;16.37;;;2.00;99.90;;;;;;4367691;32;20215;-71
2021/01/07 03:58:47;;;;;;;35.90;16.03;;;2.00;99.90;;;;;;4366711;32;20140;-72
2021/01/07 04:01:14;;;;;;;36.37;16.50;;;2.00;99.90;;;;;;4366177;32;20170;-71
2021/01/07 04:03:40;;;;;;;33.73;14.83;;;2.00;99.90;;;;;;4367808;32;20344;-71
2021/01/07 04:06:07;;;;;;;34.57;16.10;;;2.10;99.90;;;;;;4366563;32;20555;-71
2021/01/07 04:08:33;;;;;;;35.03;16.50;;;2.10;99.90;;;;;;4366139;32;20172;-71
2021/01/07 04:11:00;;;;;;;33.20;15.87;;;2.00;99.90;;;;;;4366106;32;20168;-71
2021/01/07 04:13:26;;;;;;;34.87;16.17;;;2.10;99.90;;;;;;4367659;32;20182;-71
2021/01/07 04:15:52;;;;;;;32.20;16.43;;;2.10;99.90;;;;;;4367453;32;20140;-71
2021/01/07 04:18:19;;;;;;;29.87;16.20;;;2.10;99.90;;;;;;4366411;32;20152;-71
2021/01/07 04:20:45;;;;;;;34.67;16.17;;;2.10;99.90;;;;;;4366273;32;20467;-71
2021/01/07 04:23:12;;;;;;;36.97;16.33;;;2.10;99.90;;;;;;4367307;32;20207;-71
2021/01/07 04:25:39;;;;;;;36.50;16.83;;;2.10;99.90;;;;;;4365897;32;20438;-70
2021/01/07 04:28:05;;;;;;;31.83;15.67;;;2.10;99.90;;;;;;4367433;32;20136;-71
2021/01/07 04:30:32;;;;;;;33.67;16.03;;;2.10;99.90;;;;;;4367426;32;20198;-71
2021/01/07 04:32:58;;;;;;;31.63;15.57;;;2.10;99.90;;;;;;4365930;32;20166;-70
2021/01/07 04:35:25;;;;;;;36.47;16.20;;;2.20;99.90;;;;;;4365886;32;20196;-71
2021/01/07 04:37:51;;;;;;;32.17;15.60;;;2.10;99.90;;;;;;4365049;32;20204;-71
2021/01/07 04:40:18;;;;;;;35.23;15.83;;;2.10;99.90;;;;;;4365459;32;20402;-71
2021/01/07 04:42:44;;;;;;;35.70;16.20;;;2.20;99.90;;;;;;4365616;32;20140;-70
2021/01/07 04:45:12;;;;;;;34.80;16.33;;;2.20;99.90;;;;;;4365312;32;20136;-71
2021/01/07 04:47:47;;;;;;;31.77;15.17;;;2.20;99.90;;;;;;4365895;32;20174;-70
2021/01/07 04:50:15;;;;;;;36.30;16.30;;;2.10;99.90;;;;;;4365645;32;20153;-70
2021/01/07 04:52:43;;;;;;;33.23;15.47;;;2.20;99.90;;;;;;4365758;32;20560;-71
2021/01/07 04:55:10;;;;;;;36.40;16.17;;;2.10;99.90;;;;;;4364713;32;20427;-70
2021/01/07 04:57:37;;;;;;;35.37;16.33;;;2.00;99.90;;;;;;4366121;32;20137;-70
2021/01/07 05:00:08;;;;;;;34.90;15.60;;;2.00;99.90;;;;;;4366091;32;20440;-70
2021/01/07 05:02:35;;;;;;;34.53;16.33;;;2.00;99.90;;;;;;4365598;32;20147;-70
2021/01/07 05:05:07;;;;;;;38.23;16.40;;;2.00;99.90;;;;;;4365662;32;20152;-70
2021/01/07 05:07:38;;;;;;;36.10;16.90;;;1.90;99.90;;;;;;4367351;32;20203;-70
2021/01/07 05:10:10;;;;;;;36.20;16.37;;;1.90;99.90;;;;;;4365452;32;20147;-70
2021/01/07 05:12:38;;;;;;;36.37;16.10;;;1.90;99.90;;;;;;4364070;32;20147;-69
2021/01/07 05:15:09;;;;;;;37.43;17.00;;;1.90;99.90;;;;;;4356884;33;20160;-70
2021/01/07 05:17:37;;;;;;;37.37;17.07;;;2.00;99.90;;;;;;4351590;33;20133;-70
2021/01/07 05:20:13;;;;;;;33.63;16.00;;;2.00;99.90;;;;;;4352672;33;20211;-69
2021/01/07 05:22:42;;;;;;;36.20;15.97;;;2.10;99.90;;;;;;4359484;33;20178;-70
2021/01/07 05:25:13;;;;;;;36.70;16.93;;;2.10;99.90;;;;;;4365060;32;20148;-70
2021/01/07 05:27:40;;;;;;;37.13;16.33;;;2.10;99.90;;;;;;4364402;32;20250;-70
2021/01/07 05:30:11;;;;;;;37.77;16.33;;;2.00;99.90;;;;;;4366674;32;20136;-70
2021/01/07 05:32:40;;;;;;;36.23;15.87;;;2.00;99.90;;;;;;4366537;32;20166;-72
2021/01/07 05:35:18;;;;;;;39.33;17.47;;;2.00;99.90;;;;;;4365048;32;20149;-70
2021/01/07 05:37:44;;;;;;;37.93;16.63;;;2.00;99.90;;;;;;4366432;32;20144;-71
2021/01/07 05:40:12;;;;;;;36.77;16.17;;;2.00;99.90;;;;;;4366633;32;20168;-72
2021/01/07 05:42:44;;;;;;;40.67;16.83;;;1.90;99.90;;;;;;4365213;32;20148;-70
2021/01/07 05:45:17;;;;;;;38.67;17.10;;;2.00;99.90;;;;;;4366098;32;20416;-70
2021/01/07 05:47:53;;;;;;;35.73;16.27;;;2.00;99.90;;;;;;4364206;32;20156;-71
2021/01/07 05:50:20;;;;;;;39.03;17.27;;;2.00;99.90;;;;;;4363756;32;20204;-71
2021/01/07 05:52:50;;;;;;;36.23;16.27;;;2.00;99.90;;;;;;4362545;32;20202;-70
2021/01/07 05:55:17;;;;;;;38.50;16.60;;;2.00;99.90;;;;;;4364671;32;20394;-71
2021/01/07 05:57:45;;;;;;;34.77;15.77;;;2.00;99.90;;;;;;4364908;32;20164;-71
2021/01/07 06:00:14;;;;;;;37.57;15.90;;;2.10;99.90;;;;;;4363712;32;20199;-71
2021/01/07 06:02:42;;;;;;;40.67;17.83;;;2.10;99.90;;;;;;4363793;32;20136;-71
2021/01/07 06:05:14;;;;;;;38.83;16.33;;;2.10;99.90;;;;;;4363572;32;20198;-71
2021/01/07 06:07:42;;;;;;;40.50;17.10;;;2.00;99.90;;;;;;4364551;32;20475;-71
2021/01/07 06:10:11;;;;;;;36.63;16.17;;;2.00;99.90;;;;;;4350878;33;20219;-71
2021/01/07 06:12:37;;;;;;;38.03;16.00;;;2.00;99.90;;;;;;4364785;32;20148;-71
2021/01/07 06:15:24;;;;;;;39.33;16.70;;;1.90;99.90;;;;;;4365588;32;20144;-71
2021/01/07 06:17:51;;;;;;;38.37;16.87;;;1.90;99.90;;;;;;4366087;32;20163;-71
2021/01/07 06:20:20;;;;;;;39.17;16.73;;;1.90;99.90;;;;;;4365651;32;20164;-71
2021/01/07 06:22:51;;;;;;;40.40;17.10;;;1.90;99.90;;;;;;4365597;32;20148;-70
2021/01/07 06:25:19;;;;;;;40.37;16.63;;;1.90;99.90;;;;;;4364085;32;20139;-71
2021/01/07 06:27:47;;;;;;;42.57;16.77;;;1.90;99.90;;;;;;4364192;32;20156;-73
2021/01/07 06:30:16;;;;;;;36.30;17.00;;;1.90;99.90;;;;;;4365752;32;20148;-72
2021/01/07 06:32:59;;;;;;;38.77;16.43;;;1.90;99.90;;;;;;4364524;32;20186;-72
2021/01/07 06:35:55;;;;;;;38.10;16.13;;;2.00;99.90;;;;;;4364269;32;20166;-73
2021/01/07 06:38:26;;;;;;;40.90;16.83;;;2.00;99.90;;;;;;4361322;33;20192;-71
2021/01/07 06:40:57;;;;;;;39.10;16.90;;;1.90;99.90;;;;;;4363414;32;20176;-72
2021/01/07 06:43:24;;;;;;;38.33;16.10;;;2.00;99.90;;;;;;4360287;32;20170;-71
2021/01/07 06:45:53;;;;;;;42.67;17.30;;;2.10;99.90;;;;;;4356375;32;20252;-71
2021/01/07 06:48:24;;;;;;;38.63;16.67;;;2.10;99.90;;;;;;4350575;33;20144;-70
2021/01/07 06:50:57;;;;;;;37.47;16.43;;;2.10;99.90;;;;;;4350630;33;20153;-71
2021/01/07 06:53:25;;;;;;;41.13;17.17;;;2.10;99.90;;;;;;4349015;33;20167;-71
2021/01/07 06:56:14;;;;;;;39.40;17.80;;;2.00;99.90;;;;;;4349345;32;20159;-72
2021/01/07 06:58:43;;;;;;;39.50;16.60;;;1.80;99.90;;;;;;4349637;32;20144;-72
2021/01/07 07:01:12;;;;;;;39.70;16.67;;;1.80;99.90;;;;;;4348556;33;20137;-71
2021/01/07 07:03:47;;;;;;;43.13;17.60;;;1.80;99.90;;;;;;4349772;33;20228;-71
2021/01/07 07:06:17;;;;;;;42.73;18.20;;;1.90;99.90;;;;;;4349389;33;20143;-71
2021/01/07 07:08:47;;;;;;;42.60;18.57;;;1.80;99.90;;;;;;4349212;33;20186;-71
2021/01/07 07:11:29;;;;;;;39.57;17.53;;;1.90;99.90;;;;;;4349141;33;20145;-71
2021/01/07 07:13:58;;;;;;;38.40;16.63;;;1.90;99.90;;;;;;4350047;33;20201;-70
2021/01/07 07:16:26;;;;;;;41.27;17.80;;;1.90;99.90;;;;;;4348094;33;20166;-71
2021/01/07 07:18:56;;;;;;;38.90;17.13;;;1.90;99.90;;;;;;4348822;33;20252;-71
2021/01/07 07:21:24;;;;;;;40.63;16.97;;;1.90;99.90;;;;;;4349835;33;20223;-70
2021/01/07 07:23:55;;;;;;;39.73;17.80;;;1.80;99.90;;;;;;4348623;33;20451;-73
2021/01/07 07:26:32;;;;;;;36.23;17.90;;;1.80;99.90;;;;;;4349221;33;20148;-73
2021/01/07 07:29:03;;;;;;;39.20;17.13;;;1.90;99.90;;;;;;4350362;33;20390;-71
2021/01/07 07:31:37;;;;;;;37.23;17.03;;;1.90;99.90;;;;;;4350211;33;20166;-72
2021/01/07 07:34:04;;;;;;;37.37;16.50;;;1.80;99.90;;;;;;4349221;33;20156;-73
2021/01/07 07:36:32;;;;;;;38.00;17.13;;;1.90;99.90;;;;;;4348552;33;20170;-74
2021/01/07 07:38:59;;;;;;;38.63;16.50;;;1.90;99.90;;;;;;4348448;33;20179;-73
2021/01/07 07:41:28;;;;;;;34.70;16.43;;;1.90;99.90;;;;;;4347533;33;20195;-74
2021/01/07 07:43:55;;;;;;;36.83;16.60;;;1.90;99.90;;;;;;4354812;32;20395;-73
2021/01/07 07:46:26;;;;;;;37.27;16.60;;;2.00;99.90;;;;;;4362224;33;20182;-72
2021/01/07 07:49:00;;;;;;;35.57;15.40;;;2.00;99.90;;;;;;4361097;33;20542;-73
2021/01/07 07:51:27;;;;;;;30.87;14.63;;;2.00;99.90;;;;;;4363216;33;20424;-71
2021/01/07 07:54:08;;;;;;;33.70;15.20;;;2.10;99.90;;;;;;4363491;32;20155;-70
2021/01/07 07:56:35;;;;;;;27.17;13.67;;;2.00;99.90;;;;;;4364884;33;20211;-72
2021/01/07 07:59:07;;;;;;;25.03;13.13;;;2.00;99.90;;;;;;4363663;33;20191;-73
2021/01/07 08:01:37;;;;;;;26.57;13.77;;;1.80;99.90;;;;;;4363610;33;20137;-71
2021/01/07 08:04:09;;;;;;;27.03;13.97;;;1.80;99.90;;;;;;4363534;33;20504;-70
2021/01/07 08:06:36;;;;;;;28.17;13.97;;;1.70;99.90;;;;;;4362471;33;20490;-71
2021/01/07 08:09:05;;;;;;;27.37;13.80;;;1.70;99.90;;;;;;4363371;33;20183;-72
2021/01/07 08:11:39;;;;;;;25.03;13.70;;;1.70;99.90;;;;;;4363663;33;20136;-70
2021/01/07 08:14:09;;;;;;;28.47;13.93;;;1.80;99.90;;;;;;4367639;32;20143;-71
2021/01/07 08:16:37;;;;;;;30.23;14.00;;;1.80;99.90;;;;;;4366137;32;20132;-70
2021/01/07 08:19:36;;;;;;;25.27;13.73;;;1.80;99.90;;;;;;4366152;32;20136;-71
2021/01/07 08:22:03;;;;;;;27.43;13.83;;;1.80;99.90;;;;;;4305158;33;20472;-71
2021/01/07 08:24:31;;;;;;;30.17;14.60;;;1.70;99.90;;;;;;4305117;33;20460;-71
2021/01/07 08:27:16;;;;;;;31.07;14.47;;;1.70;99.90;;;;;;4305843;33;20215;-71
2021/01/07 08:29:50;;;;;;;27.40;13.37;;;1.70;99.90;;;;;;4306457;33;20141;-71
2021/01/07 08:32:24;;;;;;;29.97;14.00;;;1.70;99.90;;;;;;4305142;33;20181;-76
2021/01/07 08:34:51;;;;;;;28.57;14.00;;;1.70;99.90;;;;;;4305049;33;20550;-71
2021/01/07 08:37:21;;;;;;;28.67;14.10;;;1.80;99.90;;;;;;4304875;33;20173;-73
2021/01/07 08:39:48;;;;;;;31.43;14.73;;;1.90;99.90;;;;;;4305407;33;20201;-71
2021/01/07 08:42:16;;;;;;;33.37;15.10;;;1.90;99.90;;;;;;4304601;33;20165;-71
2021/01/07 08:44:44;;;;;;;31.47;14.47;;;1.70;99.90;;;;;;4305093;33;20343;-71
2021/01/07 08:47:24;;;;;;;30.77;14.40;;;1.80;99.90;;;;;;4304697;33;20165;-72
2021/01/07 08:50:11;;;;;;;31.83;14.73;;;1.80;99.90;;;;;;4306578;33;20145;-72
2021/01/07 08:52:53;;;;;;;32.20;15.30;;;1.90;99.90;;;;;;4304535;33;20220;-70
2021/01/07 08:55:49;;;;;;;32.70;14.77;;;1.90;99.90;;;;;;4304561;33;20483;-70
2021/01/07 08:58:26;;;;;;;30.63;14.80;;;1.90;99.90;;;;;;4351000;33;20149;-71
2021/01/07 09:00:53;;;;;;;36.57;16.70;;;1.90;99.90;;;;;;4365550;32;20320;-72
2021/01/07 09:03:20;;;;;;;34.83;15.50;;;1.90;99.90;;;;;;4366837;32;20144;-73
2021/01/07 09:05:47;;;;;;;34.10;15.53;;;1.90;99.90;;;;;;4365286;32;20406;-71
2021/01/07 09:08:14;;;;;;;34.47;15.60;;;2.00;99.90;;;;;;4365087;32;20205;-73
2021/01/07 09:10:42;;;;;;;31.70;14.93;;;2.00;99.90;;;;;;4365202;32;20175;-70
2021/01/07 09:13:19;;;;;;;33.63;15.23;;;2.00;99.90;;;;;;4365622;32;20502;-71
2021/01/07 09:15:46;;;;;;;35.40;15.77;;;2.00;99.90;;;;;;4365251;32;20419;-73
2021/01/07 09:18:12;;;;;;;34.43;15.47;;;2.00;99.90;;;;;;4365900;32;20152;-73
2021/01/07 09:20:39;;;;;;;35.17;15.40;;;1.90;99.90;;;;;;4366714;32;20190;-73
2021/01/07 09:23:08;;;;;;;32.70;15.17;;;2.00;99.90;;;;;;4365210;32;20140;-69
2021/01/07 09:25:35;;;;;;;34.27;15.83;;;2.10;99.90;;;;;;4363730;32;20410;-70
2021/01/07 09:28:03;;;;;;;34.53;14.87;;;2.10;99.90;;;;;;4365986;32;20186;-69
2021/01/07 09:30:30;;;;;;;35.77;14.67;;;1.90;99.90;;;;;;4366406;32;20159;-70
2021/01/07 09:32:58;;;;;;;39.50;16.63;;;2.00;99.90;;;;;;4364244;32;20203;-70
2021/01/07 09:35:26;;;;;;;33.50;14.93;;;1.90;99.90;;;;;;4364607;32;20474;-69
2021/01/07 09:38:01;;;;;;;33.60;14.73;;;1.90;99.90;;;;;;4365718;32;20195;-69
2021/01/07 09:40:28;;;;;;;34.50;15.47;;;2.00;99.90;;;;;;4364922;32;20195;-70
2021/01/07 09:42:55;;;;;;;35.77;15.23;;;2.00;99.90;;;;;;4364251;32;20179;-68
2021/01/07 09:45:21;;;;;;;35.20;15.37;;;2.00;99.90;;;;;;4364769;32;20148;-68
2021/01/07 09:47:48;;;;;;;36.23;16.30;;;2.00;99.90;;;;;;4366101;32;20211;-68
2021/01/07 09:50:15;;;;;;;33.67;15.40;;;2.20;99.90;;;;;;4365348;32;20383;-68
2021/01/07 09:52:41;;;;;;;34.80;15.37;;;2.20;99.90;;;;;;4365009;32;20222;-69
2021/01/07 09:55:09;;;;;;;36.33;16.07;;;2.30;99.90;;;;;;4364556;32;20144;-69
2021/01/07 09:57:36;;;;;;;35.47;15.27;;;2.50;99.90;;;;;;4364133;32;20240;-69
2021/01/07 10:00:07;;;;;;;32.40;14.50;;;2.40;99.90;;;;;;4365744;32;20488;-70
2021/01/07 10:02:33;;;;;;;31.97;15.20;;;2.30;99.90;;;;;;4365688;32;20183;-68
2021/01/07 10:05:00;;;;;;;32.67;14.90;;;2.50;99.90;;;;;;4364516;32;20183;-69
2021/01/07 10:07:26;;;;;;;33.30;15.03;;;2.40;99.90;;;;;;4365591;32;20152;-70
2021/01/07 10:09:53;;;;;;;30.70;14.70;;;2.50;99.90;;;;;;4364352;32;20194;-68
2021/01/07 10:12:19;;;;;;;26.93;13.13;;;2.60;99.90;;;;;;4364570;32;20144;-68
2021/01/07 10:14:46;;;;;;;29.57;14.00;;;2.50;99.90;;;;;;4364338;32;20144;-68
2021/01/07 10:17:13;;;;;;;25.13;13.10;;;2.50;99.90;;;;;;4364395;32;20171;-70
2021/01/07 10:19:39;;;;;;;31.20;14.00;;;2.30;99.90;;;;;;4364473;32;20189;-69
2021/01/07 10:22:08;;;;;;;33.00;15.17;;;2.30;99.90;;;;;;4364259;32;20136;-71
2021/01/07 10:24:46;;;;;;;29.00;13.87;;;2.30;99.90;;;;;;4364694;32;20419;-70
2021/01/07 10:27:15;;;;;;;29.83;13.40;;;2.30;99.90;;;;;;4365752;32;20195;-70
2021/01/07 10:29:43;;;;;;;30.67;13.60;;;2.40;99.90;;;;;;4363963;32;20140;-71
2021/01/07 10:32:10;;;;;;;31.37;14.37;;;2.20;99.90;;;;;;4365292;32;20385;-73
2021/01/07 10:34:42;;;;;;;28.47;14.57;;;2.30;99.90;;;;;;4364555;32;20204;-72
2021/01/07 10:37:11;;;;;;;32.50;14.30;;;2.30;99.90;;;;;;4349161;33;20172;-74
2021/01/07 10:39:39;;;;;;;27.80;13.90;;;2.40;99.90;;;;;;4364481;32;20145;-72
2021/01/07 10:42:13;;;;;;;28.53;13.53;;;2.40;99.90;;;;;;4363946;32;20136;-71
2021/01/07 10:44:42;;;;;;;32.33;13.83;;;2.40;99.90;;;;;;4363903;32;20132;-72
2021/01/07 10:47:11;;;;;;;27.33;13.50;;;2.40;99.90;;;;;;4363514;32;20214;-71
2021/01/07 10:49:41;;;;;;;27.07;13.73;;;2.40;99.90;;;;;;4363419;32;20173;-72
2021/01/07 10:52:09;;;;;;;26.73;12.80;;;2.30;99.90;;;;;;4364281;32;20576;-71
2021/01/07 10:55:06;;;;;;;26.47;12.60;;;2.30;99.90;;;;;;4363669;32;20411;-71
2021/01/07 10:57:44;;;;;;;25.60;12.33;;;2.30;99.90;;;;;;4364682;32;20207;-70
2021/01/07 11:00:35;;;;;;;27.27;12.47;;;2.40;99.90;;;;;;4364125;32;20458;-70
2021/01/07 11:03:24;;;;;;;29.60;13.63;;;2.20;99.90;;;;;;4364922;32;20160;-72
2021/01/07 11:06:02;;;;;;;27.17;13.50;;;2.10;99.90;;;;;;4364386;33;20435;-72
2021/01/07 11:09:18;;;;;;;30.13;13.53;;;2.00;99.90;;;;;;4363578;33;20144;-71
2021/01/07 11:11:50;;;;;;;25.87;13.00;;;2.30;99.90;;;;;;4302937;33;20285;-71
2021/01/07 11:14:31;;;;;;;28.83;13.93;;;2.40;99.90;;;;;;4303449;33;20153;-71
2021/01/07 11:17:01;;;;;;;30.53;13.73;;;2.50;99.90;;;;;;4304050;33;20219;-71
2021/01/07 11:19:29;;;;;;;30.00;13.33;;;2.40;99.90;;;;;;4302664;33;20142;-71
2021/01/07 11:22:12;;;;;;;32.60;14.03;;;2.50;99.90;;;;;;4302917;33;20201;-71
2021/01/07 11:24:42;;;;;;;30.57;12.93;;;2.30;99.90;;;;;;4304606;33;20141;-71
2021/01/07 11:27:11;;;;;;;34.60;14.77;;;2.20;99.90;;;;;;4302766;33;20161;-72
2021/01/07 11:29:39;;;;;;;31.00;14.00;;;2.30;99.90;;;;;;4302754;33;20149;-72
2021/01/07 11:32:07;;;;;;;34.00;13.70;;;2.30;99.90;;;;;;4302366;33;20183;-72
2021/01/07 11:34:34;;;;;;;34.93;15.30;;;2.30;99.90;;;;;;4302899;33;20199;-73
2021/01/07 11:37:12;;;;;;;37.23;15.97;;;2.30;99.90;;;;;;4302681;33;20169;-71
2021/01/07 11:39:58;;;;;;;41.33;17.37;;;2.30;99.90;;;;;;4302707;33;20204;-73
2021/01/07 11:42:36;;;;;;;41.47;17.43;;;2.20;99.90;;;;;;4304021;33;20176;-72
2021/01/07 11:45:13;;;;;;;39.70;16.63;;;2.20;99.90;;;;;;4303687;33;20555;-71
2021/01/07 11:48:01;;;;;;;36.20;15.20;;;2.20;99.90;;;;;;4348636;32;20373;-73
2021/01/07 11:50:33;;;;;;;27.87;13.50;;;2.10;99.90;;;;;;4367869;32;20158;-72
2021/01/07 11:53:00;;;;;;;30.43;13.80;;;2.10;99.90;;;;;;4366125;32;20172;-73
2021/01/07 11:55:27;;;;;;;30.77;14.30;;;2.00;99.90;;;;;;4366386;32;20144;-72
2021/01/07 11:57:55;;;;;;;29.70;13.90;;;2.20;99.90;;;;;;4367435;32;20585;-74
2021/01/07 12:00:21;;;;;;;33.80;15.20;;;2.20;99.90;;;;;;4366203;32;20179;-74
2021/01/07 12:02:49;;;;;;;29.13;13.27;;;2.10;99.90;;;;;;4367636;32;20206;-72
2021/01/07 12:05:18;;;;;;;27.70;13.27;;;2.20;99.90;;;;;;4366969;32;20520;-70
2021/01/07 12:07:50;;;;;;;24.13;11.30;;;2.20;99.90;;;;;;4366097;32;20190;-72
2021/01/07 12:10:20;;;;;;;28.23;12.33;;;2.10;99.90;;;;;;4366574;32;20382;-72
2021/01/07 12:13:11;;;;;;;21.47;10.57;;;2.20;99.90;;;;;;4366234;32;20208;-71
2021/01/07 12:15:41;;;;;;;22.23;10.70;;;2.10;99.90;;;;;;4366504;32;20419;-73
2021/01/07 12:18:08;;;;;;;19.30;9.33;;;2.10;99.90;;;;;;4366029;32;20206;-71
2021/01/07 12:20:36;;;;;;;20.33;9.33;;;2.20;99.90;;;;;;4365677;32;20500;-72
2021/01/07 12:23:03;;;;;;;17.80;9.70;;;2.20;99.90;;;;;;4365780;32;20144;-71
2021/01/07 12:25:31;;;;;;;18.63;10.03;;;2.10;99.90;;;;;;4365961;32;20141;-70
2021/01/07 12:27:58;;;;;;;18.77;9.50;;;2.20;99.90;;;;;;4366077;32;20147;-71
2021/01/07 12:30:25;;;;;;;17.73;9.20;;;2.20;99.90;;;;;;4367143;32;20186;-72
2021/01/07 12:33:36;;;;;;;16.60;8.53;;;2.10;99.90;;;;;;4368063;32;20165;-71
2021/01/07 12:36:19;;;;;;;16.77;8.43;;;2.10;99.90;;;;;;4366169;32;20179;-72
2021/01/07 12:39:06;;;;;;;16.07;8.47;;;2.20;99.90;;;;;;4367404;32;20184;-73
2021/01/07 12:41:43;;;;;;;15.57;7.93;;;2.20;99.90;;;;;;4365837;32;20139;-73
2021/01/07 12:44:14;;;;;;;13.70;7.60;;;2.20;99.90;;;;;;4366084;32;20144;-72
2021/01/07 12:46:49;;;;;;;14.37;7.40;;;2.20;99.90;;;;;;4366632;32;20144;-70
2021/01/07 12:49:15;;;;;;;13.33;7.60;;;2.30;99.90;;;;;;4365807;32;20147;-68
2021/01/07 12:51:43;;;;;;;14.57;8.13;;;2.30;99.90;;;;;;4366782;32;20174;-70